Airfield :
LOGIN :

Register | Disclaimer

   EN    FR    IT 

 










Legend :    VFR   Marginal VFR   IFR   Intensive IFR   Very Intensive IFR
Visi :
Ceiling :
>= 8 km
>= 3000ft
5 to 8 km
1000 to 3000 ft
1500m to 5 km
500 to 1000 ft
800 to 1500m
200 to 500 ft
< 800m
< 200 ft
Symbols :   Thunderstorms  Fog  Heavy snow  Heavy precipitations  Wind > 20 kt
SIGMETs :     Misc.  Thunderstorms  Icing  Turbulence  Mountain Waves  Volcanic Ashes






- Airport Elevation : 141 ft
- IATA code : SKS


EKSP - Srydstrup Vojens

CURRENT METAR :
  • 212150Z 08008KT 0400 R10/0750N R28/0550D FG VV001 08/08 Q1009

EXPIRED METARs :
  • 212120Z 07007KT 0400 R10/0550N R28/0450N FG VV001 08/08 Q1009
  • 212056Z 07008KT 0400 R10/0700D R28/0500D FG VV001 08/08 Q1009
  • 212037Z 08008KT 2000 BR SCT002 OVC004 08/08 Q1009
  • 212020Z 08009KT 1200 R10/1600U R28/1100U BR OVC002 08/08 Q1009
  • 212009Z 08007KT 1100 R10/1800D R28/0900D BR OVC002 08/08 Q1010
  • 211950Z 08008KT 3000 BR SCT003 OVC004 08/08 Q1010
  • 211920Z 09008KT 3000 BR SCT003 OVC004 08/08 Q1010

TAF TAF EKSP
Valid from the 21 at 21:00 until the 22 at 21:00 UTC


212013Z 2121/2221 08006KT 3000 BR BKN005
TEMPO 2121/2208 0300 FG -RADZ BKN001
BECMG 2208/2210 16010KT 8000 NSW BKN020
TEMPO 2214/2221 3000 BR BKN005



MET'MAP, your aeronautical weather chart ! - Copyright ORBIFLY December 2007 - Disclaimer

ORBIFLY MET'MAP TEAM :

Programming & Development : Alexandra Zaïnal
Concept & Development : Baudouin d'Aumeries
Co-Development & Prog : Marc-Olivier Méhu
Technical & hardware support : Manuel Goepfert

Contact : metmap@orbifly.com




SOURCES & CREDITS :

   NOAA